Time;durP1;ratioP1;P1;durP2;ratioP2;P2;SDS_P1;SDS_P2;PMS_P1;PMS_P2;Temp;Humidity;BMP_temperature;BMP_pressure;BME280_temperature;BME280_humidity;BME280_pressure;Samples;Min_cycle;Max_cycle;Signal;HPM_P1;HPM_P2
2022/11/25 00:01:14;;;;;;;7.80;5.83;;;;;;;-7.50;97.14;102610.03;5015988;28;20105;-76
2022/11/25 00:03:41;;;;;;;5.68;4.88;;;;;;;-7.42;97.34;102625.53;5014331;28;20036;-77
2022/11/25 00:06:20;;;;;;;5.47;4.95;;;;;;;-7.61;96.72;102603.13;5015870;28;20084;-76
2022/11/25 00:08:58;;;;;;;6.38;5.10;;;;;;;-7.42;97.77;102622.09;5015624;28;20026;-76
2022/11/25 00:11:23;;;;;;;7.07;5.32;;;;;;;-7.39;97.01;102614.31;5015305;28;20041;-75
2022/11/25 00:13:49;;;;;;;4.97;4.47;;;;;;;-7.43;96.27;102616.03;5015140;28;20036;-74
2022/11/25 00:16:18;;;;;;;6.20;5.20;;;;;;;-7.52;96.28;102598.81;5013849;28;20022;-75
2022/11/25 00:18:44;;;;;;;;;;;;;;;-7.43;96.73;102618.63;5015497;28;20503;-76
2022/11/25 00:21:13;;;;;;;6.00;5.40;;;;;;;-7.57;96.83;102610.00;5014614;28;19909;-75
2022/11/25 00:23:38;;;;;;;5.22;4.78;;;;;;;-7.53;97.43;102617.75;5015129;28;20042;-77
2022/11/25 00:26:11;;;;;;;10.27;5.47;;;;;;;-7.70;96.97;102600.56;5014781;28;20445;-76
2022/11/25 00:28:38;;;;;;;9.02;5.65;;;;;;;-7.54;97.44;102620.34;5015383;28;20037;-76
2022/11/25 00:31:05;;;;;;;6.47;5.80;;;;;;;-7.47;97.31;102624.69;5015098;28;20033;-76
2022/11/25 00:33:30;;;;;;;6.88;4.95;;;;;;;-7.40;97.39;102626.38;5014628;28;20026;-76
2022/11/25 00:35:59;;;;;;;5.37;4.93;;;;;;;-7.42;96.29;102625.53;5014635;28;20026;-76
2022/11/25 00:38:25;;;;;;;4.90;4.40;;;;;;;-7.41;96.19;102627.25;5014941;28;20053;-76
2022/11/25 00:44:34;;;;;;;5.97;4.97;;;;;;;-7.46;95.93;102628.13;5014592;28;20335;-76
2022/11/25 00:46:51;;;;;;;5.25;4.70;;;;;;;-7.44;95.83;102623.81;5014400;28;20397;-76
2022/11/25 00:49:16;;;;;;;4.60;4.20;;;;;;;-7.40;96.43;102623.81;5014359;28;20034;-75
2022/11/25 00:51:42;;;;;;;4.57;4.07;;;;;;;-7.33;96.75;102620.31;5014208;28;20017;-75
2022/11/25 00:54:07;;;;;;;4.60;4.20;;;;;;;-7.22;96.03;102623.75;5013941;28;20036;-75
2022/11/25 00:56:33;;;;;;;4.43;3.67;;;;;;;-7.23;95.04;102629.81;5012625;28;20036;-75
2022/11/25 00:58:58;;;;;;;4.43;4.03;;;;;;;-7.44;95.60;102598.78;5013812;28;20485;-75
2022/11/25 01:01:25;;;;;;;4.47;4.07;;;;;;;-7.38;95.72;102623.78;5014087;28;20022;-75
2022/11/25 01:03:52;;;;;;;4.88;4.47;;;;;;;-7.47;95.56;102626.41;5012191;28;20465;-76
2022/11/25 01:06:18;;;;;;;4.80;4.40;;;;;;;-7.60;96.28;102620.38;5013775;28;20382;-76
2022/11/25 01:08:44;;;;;;;5.18;4.68;;;;;;;-7.56;96.72;102632.44;5013901;28;20034;-76
2022/11/25 01:11:11;;;;;;;4.63;4.20;;;;;;;-7.51;96.83;102625.56;5014243;28;20466;-75
2022/11/25 01:13:36;;;;;;;5.53;4.43;;;;;;;-7.46;96.40;102626.41;5017200;28;20018;-76
2022/11/25 01:16:07;;;;;;;5.17;4.77;;;;;;;-7.46;95.84;102629.00;5014070;28;20062;-76
2022/11/25 01:18:33;;;;;;;5.05;4.03;;;;;;;-7.43;95.51;102636.75;5012613;28;20026;-76
2022/11/25 01:21:09;;;;;;;5.05;4.47;;;;;;;-7.48;95.75;102635.91;5014701;28;20033;-76
2022/11/25 01:23:35;;;;;;;4.65;4.25;;;;;;;-7.54;96.52;102633.28;5012644;28;20034;-76
2022/11/25 01:26:06;;;;;;;4.25;3.80;;;;;;;-7.59;96.76;102632.44;5013937;28;20045;-74
2022/11/25 01:28:32;;;;;;;5.07;4.68;;;;;;;-7.59;96.52;102642.78;5014194;28;20033;-76
2022/11/25 01:31:05;;;;;;;5.00;4.50;;;;;;;-7.58;96.75;102639.34;5012554;28;20033;-75
2022/11/25 01:33:32;;;;;;;6.20;5.13;;;;;;;-7.51;96.89;102641.09;5013770;28;20289;-75
2022/11/25 01:36:05;;;;;;;6.20;4.18;;;;;;;-7.39;97.09;102650.53;5013440;28;20037;-75
2022/11/25 01:38:31;;;;;;;5.00;4.40;;;;;;;-7.33;96.58;102650.53;5013249;28;20044;-75
2022/11/25 01:40:58;;;;;;;5.00;4.50;;;;;;;-7.22;97.11;102652.25;5013382;28;20038;-76
2022/11/25 01:43:26;;;;;;;6.50;5.07;;;;;;;-7.23;95.99;102658.28;5013209;28;20080;-76
2022/11/25 01:46:23;;;;;;;5.20;4.70;;;;;;;-7.25;95.50;102654.81;5012120;28;20145;-76
2022/11/25 01:48:54;;;;;;;5.40;4.45;;;;;;;-7.30;95.77;102659.16;5013278;28;20037;-75
2022/11/25 01:51:34;;;;;;;7.32;5.43;;;;;;;-7.24;96.20;102653.94;5013959;28;20030;-75
2022/11/25 01:54:04;;;;;;;7.70;5.30;;;;;;;-7.24;96.00;102653.94;5013813;28;20025;-75
2022/11/25 01:56:35;;;;;;;6.85;5.30;;;;;;;-7.21;95.77;102661.72;5016200;28;20096;-76
2022/11/25 01:59:01;;;;;;;8.00;5.00;;;;;;;-7.34;95.99;102660.03;5011951;28;20172;-75
2022/11/25 02:01:27;;;;;;;8.77;5.68;;;;;;;-7.33;96.39;102656.56;5013003;28;20366;-76
2022/11/25 02:03:55;;;;;;;6.87;5.20;;;;;;;-7.31;96.35;102662.59;5013427;28;20061;-75
2022/11/25 02:06:27;;;;;;;6.07;5.40;;;;;;;-7.35;96.97;102668.66;5013226;28;20121;-76
2022/11/25 02:08:57;;;;;;;5.25;4.72;;;;;;;-7.35;96.73;102670.38;5013156;28;20084;-76
2022/11/25 02:11:27;;;;;;;14.45;5.18;;;;;;;-7.39;97.29;102663.47;5013117;28;20100;-75
2022/11/25 02:13:53;;;;;;;4.75;4.10;;;;;;;-7.34;97.38;102659.16;5013312;28;20137;-75
2022/11/25 02:16:19;;;;;;;5.05;4.60;;;;;;;-7.29;96.88;102673.81;5010475;28;20476;-75
2022/11/25 02:18:45;;;;;;;5.40;4.30;;;;;;;-7.36;96.50;102666.06;5012520;28;20080;-76
2022/11/25 02:21:14;;;;;;;4.53;4.13;;;;;;;-7.35;96.57;102676.41;5012803;28;20049;-75
2022/11/25 02:23:47;;;;;;;4.95;4.45;;;;;;;-7.38;97.90;102668.66;5012657;28;20036;-76
2022/11/25 02:26:13;;;;;;;5.72;5.20;;;;;;;-7.34;97.78;102666.91;5011391;28;20037;-75
2022/11/25 02:28:38;;;;;;;5.73;5.23;;;;;;;-7.12;96.46;102681.56;5012765;28;20034;-76
2022/11/25 02:31:06;;;;;;;9.00;5.97;;;;;;;-7.15;96.53;102686.75;5013062;28;20061;-75
2022/11/25 02:33:32;;;;;;;4.88;4.35;;;;;;;-7.09;97.00;102684.13;5012693;28;20033;-75
2022/11/25 02:36:03;;;;;;;5.97;4.63;;;;;;;-7.14;96.04;102678.13;5012650;28;20072;-76
2022/11/25 02:38:41;;;;;;;5.38;4.88;;;;;;;-7.19;97.38;102672.09;5012656;28;20108;-77
2022/11/25 02:41:13;;;;;;;13.00;6.55;;;;;;;-7.14;97.97;102677.25;5012925;28;20053;-76
2022/11/25 02:43:40;;;;;;;6.38;5.63;;;;;;;-7.06;97.36;102665.13;5012798;28;20056;-75
2022/11/25 02:46:12;;;;;;;5.18;4.68;;;;;;;-7.02;97.23;102666.84;5012958;28;20037;-75
2022/11/25 02:48:39;;;;;;;6.55;4.85;;;;;;;-7.04;97.16;102672.03;5013109;28;20029;-76
2022/11/25 02:51:07;;;;;;;9.35;5.45;;;;;;;-7.05;97.06;102672.03;5013069;28;20036;-76
2022/11/25 02:53:33;;;;;;;5.90;5.28;;;;;;;-7.06;96.86;102662.53;5012394;28;20030;-76
2022/11/25 02:55:58;;;;;;;9.90;5.00;;;;;;;-6.99;97.28;102669.44;5012883;28;20033;-75
2022/11/25 02:58:25;;;;;;;5.80;5.18;;;;;;;-6.95;97.16;102668.53;5012265;28;20038;-76
2022/11/25 03:00:51;;;;;;;5.85;5.25;;;;;;;-6.82;97.46;102680.59;5012382;28;20493;-76
2022/11/25 03:03:16;;;;;;;6.47;5.73;;;;;;;-6.70;97.45;102679.69;5011154;28;20077;-76
2022/11/25 03:05:42;;;;;;;5.07;4.57;;;;;;;-6.68;96.31;102673.63;5012260;28;20071;-76
2022/11/25 03:08:08;;;;;;;7.93;5.77;;;;;;;-6.68;96.09;102652.91;5012146;28;20026;-76
2022/11/25 03:10:34;;;;;;;6.25;5.15;;;;;;;-6.75;95.95;102678.84;5023850;28;20037;-76
2022/11/25 03:13:00;;;;;;;6.82;4.88;;;;;;;-6.80;96.50;102673.69;5033070;28;20053;-76
2022/11/25 03:15:27;;;;;;;6.88;5.07;;;;;;;-6.73;96.90;102674.53;5013370;28;20374;-77
2022/11/25 03:17:52;;;;;;;6.07;4.78;;;;;;;-6.65;96.64;102686.59;5012349;28;20080;-76
2022/11/25 03:20:19;;;;;;;5.20;4.63;;;;;;;-6.61;96.29;102690.03;5012202;28;20030;-76
2022/11/25 03:22:45;;;;;;;6.55;4.75;;;;;;;-6.76;95.83;102675.41;5010751;28;20038;-76
2022/11/25 03:25:12;;;;;;;6.97;5.05;;;;;;;-6.74;96.04;102694.38;5012394;28;20065;-76
2022/11/25 03:27:39;;;;;;;6.03;5.20;;;;;;;-6.74;95.66;102688.34;5014466;28;20026;-76
2022/11/25 03:30:08;;;;;;;9.25;5.15;;;;;;;-6.79;96.40;102690.97;5016090;28;20092;-76
2022/11/25 03:32:34;;;;;;;8.15;4.85;;;;;;;-6.75;96.57;102702.16;5015974;28;20052;-75
2022/11/25 03:34:59;;;;;;;6.20;4.90;;;;;;;-6.73;96.70;102701.28;5016029;28;20517;-76
2022/11/25 03:37:25;;;;;;;6.23;5.20;;;;;;;-6.85;96.11;102695.31;5015008;28;20048;-76
2022/11/25 03:39:50;;;;;;;6.40;4.63;;;;;;;-6.94;97.22;102701.34;5016012;28;20041;-79
2022/11/25 03:42:16;;;;;;;7.57;4.70;;;;;;;-6.90;97.23;102705.69;5015483;28;20377;-77
2022/11/25 03:44:42;;;;;;;5.70;5.03;;;;;;;-6.85;98.11;102701.34;5016053;28;20042;-75
2022/11/25 03:47:08;;;;;;;5.68;4.72;;;;;;;-6.70;97.16;102700.41;5025664;28;20041;-76
2022/11/25 03:49:34;;;;;;;7.37;5.80;;;;;;;-6.75;97.15;102699.56;5025202;28;20038;-76
2022/11/25 03:51:59;;;;;;;6.70;4.87;;;;;;;-6.71;96.88;102715.09;5027259;28;20516;-77
2022/11/25 03:54:25;;;;;;;9.97;5.37;;;;;;;-6.75;96.44;102705.63;5024157;28;20036;-78
2022/11/25 03:56:51;;;;;;;6.97;4.87;;;;;;;-6.69;96.73;102707.31;5030931;28;20033;-75
2022/11/25 03:59:16;;;;;;;9.40;5.77;;;;;;;-6.58;96.58;102711.63;5024077;28;20120;-76
2022/11/25 04:01:42;;;;;;;6.27;5.07;;;;;;;-6.53;95.85;102728.88;5032122;28;20026;-74
2022/11/25 04:04:07;;;;;;;6.47;5.53;;;;;;;-6.64;95.76;102727.19;5038117;28;20022;-75
2022/11/25 04:06:33;;;;;;;9.20;6.23;;;;;;;-6.71;96.22;102720.28;5027242;28;20034;-76
2022/11/25 04:08:58;;;;;;;9.33;5.20;;;;;;;-6.81;96.13;102734.16;5025497;28;20048;-75
2022/11/25 04:12:45;;;;;;;6.73;5.03;;;;;;;-6.91;96.33;102722.94;5016793;28;20026;-72
2022/11/25 04:14:10;;;;;;;9.10;6.38;;;;;;;-6.94;97.52;102722.06;5015863;28;20109;-76
2022/11/25 04:16:35;;;;;;;5.60;5.10;;;;;;;-6.93;97.25;102723.81;5015493;28;20086;-75
2022/11/25 04:19:01;;;;;;;7.17;5.90;;;;;;;-6.94;97.76;102727.25;5015169;28;20437;-75
2022/11/25 04:21:26;;;;;;;7.00;5.50;;;;;;;-6.97;97.82;102728.13;5015101;28;20437;-75
2022/11/25 04:23:52;;;;;;;9.33;6.27;;;;;;;-7.02;98.23;102736.78;5014884;28;20084;-75
2022/11/25 04:26:17;;;;;;;6.13;5.30;;;;;;;-7.12;98.42;102696.22;5014821;28;20114;-76
2022/11/25 04:28:43;;;;;;;4.83;4.13;;;;;;;-6.81;97.74;102734.16;5015024;28;20374;-74
2022/11/25 04:31:08;;;;;;;6.33;4.77;;;;;;;-6.85;98.12;102731.56;5013861;28;20125;-74
2022/11/25 04:33:34;;;;;;;6.10;5.10;;;;;;;-6.87;98.35;102723.81;5015334;28;20030;-72
2022/11/25 04:35:59;;;;;;;5.23;4.47;;;;;;;-6.77;97.80;102725.50;5015053;28;20053;-73
2022/11/25 04:38:25;;;;;;;5.57;4.20;;;;;;;-6.71;98.36;102729.78;5013943;28;20055;-74
2022/11/25 04:40:50;;;;;;;5.47;4.57;;;;;;;-6.76;98.50;102721.16;5028314;28;20034;-76
2022/11/25 04:43:16;;;;;;;5.57;4.40;;;;;;;-6.78;98.09;102734.13;5029487;28;20034;-75
2022/11/25 04:45:43;;;;;;;5.85;4.57;;;;;;;-6.77;98.62;102728.09;5027548;28;20076;-73
2022/11/25 04:48:13;;;;;;;6.20;5.47;;;;;;;-6.61;98.69;102732.38;5026504;28;20097;-73
2022/11/25 04:50:38;;;;;;;5.72;5.13;;;;;;;-6.60;98.04;102728.03;5027539;28;20093;-74
2022/11/25 04:53:04;;;;;;;7.43;5.53;;;;;;;-6.74;98.09;102712.53;5028327;28;20072;-74
2022/11/25 04:55:29;;;;;;;6.43;4.83;;;;;;;-6.67;98.56;102726.31;5019174;28;20456;-73
2022/11/25 04:57:55;;;;;;;6.93;4.63;;;;;;;-6.65;98.42;102720.28;5014398;28;20421;-74
2022/11/25 05:00:21;;;;;;;6.47;4.53;;;;;;;-6.49;98.50;102730.59;5015268;28;20044;-74
2022/11/25 05:02:47;;;;;;;8.35;5.50;;;;;;;-6.46;98.24;102727.97;5014448;28;20038;-75
2022/11/25 05:05:13;;;;;;;8.90;6.83;;;;;;;-6.33;98.49;102737.44;5014440;28;20099;-74
2022/11/25 05:07:38;;;;;;;5.13;4.60;;;;;;;-6.24;98.01;102739.97;5012553;28;20129;-73
2022/11/25 05:10:05;;;;;;;7.50;4.83;;;;;;;-6.26;97.60;102736.53;5014019;28;20029;-74
2022/11/25 05:12:30;;;;;;;7.63;5.38;;;;;;;-6.21;97.58;102737.38;5013674;28;20030;-75
2022/11/25 05:14:56;;;;;;;7.33;5.10;;;;;;;-6.17;98.29;102733.88;5013326;28;20036;-75
2022/11/25 05:17:25;;;;;;;5.87;4.87;;;;;;;-6.02;97.64;102741.59;5013460;28;20486;-76
2022/11/25 05:19:51;;;;;;;7.25;6.07;;;;;;;-6.05;97.28;102744.22;5013808;28;20121;-75
2022/11/25 05:22:19;;;;;;;8.82;5.22;;;;;;;-6.04;97.61;102758.91;5013482;28;20073;-74
2022/11/25 05:24:45;;;;;;;7.53;4.72;;;;;;;-6.03;97.99;102745.06;5013908;28;20032;-75
2022/11/25 05:27:11;;;;;;;7.87;5.00;;;;;;;-5.96;97.25;102751.94;5013633;28;20389;-74
2022/11/25 05:29:37;;;;;;;8.30;5.17;;;;;;;-5.95;97.77;102753.66;5013529;28;20060;-72
2022/11/25 05:32:03;;;;;;;8.38;5.30;;;;;;;-5.99;97.12;102749.38;5013756;28;20080;-73
2022/11/25 05:34:29;;;;;;;9.82;5.50;;;;;;;-5.99;98.07;102743.31;5014026;28;20087;-74
2022/11/25 05:36:55;;;;;;;6.20;4.90;;;;;;;-5.98;97.45;102753.69;5014289;28;20030;-74
2022/11/25 05:39:20;;;;;;;6.27;4.97;;;;;;;-5.99;97.95;102754.56;5014571;28;20030;-76
2022/11/25 05:41:46;;;;;;;6.73;5.80;;;;;;;-5.93;97.76;102754.50;5013875;28;20036;-73
2022/11/25 05:44:15;;;;;;;9.20;5.43;;;;;;;-5.95;97.52;102756.25;5013444;28;20050;-75
2022/11/25 05:46:44;;;;;;;11.23;6.78;;;;;;;-5.98;98.13;102751.09;5013579;28;20048;-75
2022/11/25 05:49:09;;;;;;;9.85;6.32;;;;;;;-5.99;98.03;102754.56;5013237;28;20099;-76
2022/11/25 05:51:35;;;;;;;9.17;6.50;;;;;;;-6.01;98.05;102758.88;5013342;28;20030;-77
2022/11/25 05:54:00;;;;;;;8.73;5.73;;;;;;;-6.01;98.04;102758.88;5013521;28;20036;-75
2022/11/25 05:56:25;;;;;;;9.63;6.30;;;;;;;-5.95;98.72;102761.44;5013462;28;20030;-77
2022/11/25 05:58:53;;;;;;;12.43;7.70;;;;;;;-5.89;98.23;102764.88;5013365;28;20416;-77
2022/11/25 06:01:21;;;;;;;11.90;6.75;;;;;;;-5.89;98.40;102770.88;5012431;28;20030;-76
2022/11/25 06:03:46;;;;;;;13.85;6.43;;;;;;;-5.95;97.64;102776.16;5012321;28;20026;-76
2022/11/25 06:06:12;;;;;;;9.93;6.23;;;;;;;-5.97;98.74;102777.88;5013027;28;20030;-75
2022/11/25 06:08:38;;;;;;;10.53;7.30;;;;;;;-6.03;99.07;102783.97;5013168;28;20075;-75
2022/11/25 06:11:10;;;;;;;18.17;8.60;;;;;;;-5.98;99.15;102778.75;5013057;28;20477;-74
2022/11/25 06:13:36;;;;;;;10.52;7.05;;;;;;;-5.99;99.32;102772.72;5013150;28;20025;-77
2022/11/25 06:16:13;;;;;;;11.73;6.72;;;;;;;-5.83;98.76;102786.41;5013124;28;20108;-74
2022/11/25 06:18:39;;;;;;;10.80;7.05;;;;;;;-5.76;98.86;102782.06;5013378;28;20061;-76
2022/11/25 06:21:06;;;;;;;12.85;7.82;;;;;;;-5.64;99.18;102793.22;5013016;28;20026;-74
2022/11/25 06:23:32;;;;;;;13.70;8.10;;;;;;;-5.54;98.57;102791.41;5013090;28;20038;-77
2022/11/25 06:26:16;;;;;;;11.18;7.72;;;;;;;-5.42;98.40;102788.75;5013390;28;20046;-74
2022/11/25 06:28:41;;;;;;;14.20;8.93;;;;;;;-5.42;97.78;102787.88;5013760;28;20056;-74
2022/11/25 06:31:13;;;;;;;10.67;7.47;;;;;;;-5.41;98.31;102789.63;5015518;28;20026;-76
2022/11/25 06:33:39;;;;;;;17.77;7.43;;;;;;;-5.42;97.65;102791.34;5013740;28;20022;-75
2022/11/25 06:36:06;;;;;;;13.63;8.32;;;;;;;-5.49;97.64;102802.66;5012749;28;20053;-74
2022/11/25 06:38:32;;;;;;;11.07;6.40;;;;;;;-5.56;97.95;102798.34;5012663;28;20028;-77
2022/11/25 06:41:02;;;;;;;12.10;6.45;;;;;;;-5.63;98.39;102794.09;5011396;28;20033;-75
2022/11/25 06:43:29;;;;;;;10.90;7.65;;;;;;;-5.55;99.12;102802.69;5012600;28;20033;-74
2022/11/25 06:45:59;;;;;;;13.88;7.45;;;;;;;-5.52;98.69;102809.59;5012072;28;20045;-75
2022/11/25 06:48:26;;;;;;;13.43;6.90;;;;;;;-5.53;99.31;102795.75;5012588;28;20100;-75
2022/11/25 06:50:56;;;;;;;11.80;7.38;;;;;;;-5.46;99.15;102787.06;5012528;28;20033;-75
2022/11/25 06:53:22;;;;;;;13.30;7.45;;;;;;;-5.35;98.56;102800.81;5011149;28;20124;-75
2022/11/25 06:55:48;;;;;;;11.43;6.83;;;;;;;-5.43;98.50;102791.38;5012699;28;20108;-74
2022/11/25 06:58:13;;;;;;;10.37;7.53;;;;;;;-5.48;98.35;102801.78;5012593;28;20116;-75
2022/11/25 07:00:39;;;;;;;16.67;7.40;;;;;;;-5.41;98.71;102821.63;5012652;28;20045;-74
2022/11/25 07:03:04;;;;;;;15.60;7.23;;;;;;;-5.41;98.80;102821.63;5015401;28;20137;-77
2022/11/25 07:05:30;;;;;;;13.50;8.13;;;;;;;-5.38;98.19;102829.41;5016367;28;20026;-75
2022/11/25 07:07:56;;;;;;;9.17;6.13;;;;;;;-5.42;98.59;102814.72;5016714;28;20026;-75
2022/11/25 07:10:22;;;;;;;15.50;6.50;;;;;;;-5.34;98.38;102812.91;5018596;28;20030;-73
2022/11/25 07:12:47;;;;;;;15.47;6.20;;;;;;;-5.31;98.05;102820.69;5017319;28;20099;-76
2022/11/25 07:15:13;;;;;;;13.00;7.73;;;;;;;-5.21;97.47;102818.88;5019111;28;20034;-74
2022/11/25 07:17:38;;;;;;;11.37;7.10;;;;;;;-5.23;97.67;102810.22;5017966;28;20030;-76
2022/11/25 07:20:05;;;;;;;13.60;6.90;;;;;;;-5.09;98.04;102818.78;5016386;28;20040;-74
2022/11/25 07:22:30;;;;;;;13.77;6.50;;;;;;;-5.06;97.33;102825.69;5016712;28;20129;-76
2022/11/25 07:24:56;;;;;;;11.63;7.53;;;;;;;-5.05;96.67;102827.41;5018080;28;20034;-74
2022/11/25 07:27:21;;;;;;;9.50;5.27;;;;;;;-5.11;97.45;102819.69;4998529;28;20076;-74
2022/11/25 07:29:48;;;;;;;10.00;6.07;;;;;;;-5.02;97.42;102820.47;5015932;28;20109;-77
2022/11/25 07:32:13;;;;;;;8.73;6.30;;;;;;;-4.91;97.29;102829.91;5015660;28;20045;-76
2022/11/25 07:34:39;;;;;;;10.87;5.93;;;;;;;-4.90;96.74;102818.66;5015645;28;20441;-74
2022/11/25 07:37:04;;;;;;;18.03;6.40;;;;;;;-4.87;95.92;102829.88;5014622;28;20049;-76
2022/11/25 07:39:30;;;;;;;11.40;6.03;;;;;;;-4.95;95.98;102828.19;5015957;28;20393;-75
2022/11/25 07:41:56;;;;;;;9.50;5.67;;;;;;;-4.99;96.26;102827.38;5015530;28;20030;-75
2022/11/25 07:44:22;;;;;;;9.10;5.67;;;;;;;-4.88;96.40;102837.69;5015576;28;20042;-74
2022/11/25 07:47:13;;;;;;;9.55;6.22;;;;;;;-4.84;95.60;102829.84;5015951;28;20049;-73
2022/11/25 07:49:39;;;;;;;11.17;6.07;;;;;;;-4.79;95.84;102841.06;5019344;28;20038;-73
2022/11/25 07:52:04;;;;;;;13.43;7.37;;;;;;;-4.78;95.96;102834.97;5017152;28;20069;-76
2022/11/25 07:54:31;;;;;;;7.63;5.40;;;;;;;-4.81;95.76;102831.56;5015793;28;20057;-75
2022/11/25 07:56:57;;;;;;;13.43;5.75;;;;;;;-4.70;95.17;102845.28;5014371;28;20030;-74
2022/11/25 07:59:23;;;;;;;9.23;5.30;;;;;;;-4.76;95.79;102822.81;5015348;28;20100;-76
2022/11/25 08:01:51;;;;;;;13.80;7.00;;;;;;;-4.72;94.68;102837.50;5015062;28;20065;-74
2022/11/25 08:04:18;;;;;;;10.43;5.30;;;;;;;-4.69;95.24;102845.28;5015154;28;20038;-76
2022/11/25 08:06:45;;;;;;;7.53;4.90;;;;;;;-4.55;95.44;102846.91;5015228;28;20527;-75
2022/11/25 08:09:14;;;;;;;12.32;5.70;;;;;;;-4.51;95.05;102846.00;5015050;28;20409;-74
2022/11/25 08:11:40;;;;;;;8.88;5.50;;;;;;;-4.51;94.98;102848.59;5015217;28;20030;-76
2022/11/25 08:14:07;;;;;;;11.48;5.50;;;;;;;-4.52;94.65;102855.53;5013459;28;20022;-74
2022/11/25 08:16:33;;;;;;;10.15;5.30;;;;;;;-4.53;94.44;102858.16;5014991;28;20414;-75
2022/11/25 08:19:00;;;;;;;9.27;4.70;;;;;;;-4.62;94.81;102853.06;5014898;28;20157;-74
2022/11/25 08:21:26;;;;;;;8.73;5.28;;;;;;;-4.58;94.81;102863.41;5015065;28;20029;-75
2022/11/25 08:23:53;;;;;;;10.23;5.32;;;;;;;-4.55;95.19;102857.31;5015525;28;20045;-74
2022/11/25 08:26:25;;;;;;;8.93;5.95;;;;;;;-4.54;95.20;102861.63;5014775;28;20101;-75
2022/11/25 08:29:00;;;;;;;8.35;6.53;;;;;;;-4.46;95.34;102871.06;5014307;28;20033;-74
2022/11/25 08:31:32;;;;;;;11.02;6.03;;;;;;;-4.46;94.58;102859.81;5013331;28;20109;-75
2022/11/25 08:33:59;;;;;;;11.57;6.45;;;;;;;-4.40;94.83;102859.75;5014660;28;20080;-74
2022/11/25 08:36:26;;;;;;;11.02;7.10;;;;;;;-4.35;95.22;102860.53;5014497;28;20091;-74
2022/11/25 08:38:56;;;;;;;10.18;6.00;;;;;;;-4.31;94.28;102854.47;5014370;28;20416;-74
2022/11/25 08:41:31;;;;;;;14.82;9.38;;;;;;;-4.22;94.41;102856.94;5014591;28;20117;-77
2022/11/25 08:43:59;;;;;;;16.27;8.30;;;;;;;-4.32;93.82;102850.13;5013241;28;20061;-75
2022/11/25 08:46:26;;;;;;;;;;;;;;;-4.30;94.52;102858.78;5015152;28;20038;-74
2022/11/25 08:48:53;;;;;;;13.48;8.02;;;;;;;-4.40;95.41;102855.41;5014643;28;19959;-75
2022/11/25 08:51:23;;;;;;;14.70;7.45;;;;;;;-4.32;95.35;102864.88;5014214;28;20041;-74
2022/11/25 08:53:50;;;;;;;11.55;6.05;;;;;;;-4.29;95.12;102860.50;5014459;28;20424;-75
2022/11/25 08:56:16;;;;;;;16.23;7.88;;;;;;;-4.29;95.16;102859.66;5014478;28;20040;-73
2022/11/25 08:58:42;;;;;;;9.70;5.82;;;;;;;-4.41;95.12;102845.88;5014389;28;20509;-75
2022/11/25 09:01:08;;;;;;;14.53;7.23;;;;;;;-4.31;95.27;102862.25;5014168;28;20045;-75
2022/11/25 09:03:38;;;;;;;10.93;6.65;;;;;;;-4.16;95.03;102867.28;5013828;28;20044;-74
2022/11/25 09:06:05;;;;;;;17.50;9.88;;;;;;;-4.14;94.67;102869.88;5013948;28;20068;-75
2022/11/25 09:08:31;;;;;;;12.35;6.65;;;;;;;-4.18;94.82;102871.63;5013783;28;20573;-74
2022/11/25 09:10:58;;;;;;;16.53;7.50;;;;;;;-4.16;94.95;102867.28;5012964;28;20118;-73
2022/11/25 09:13:24;;;;;;;13.45;6.38;;;;;;;-4.14;95.30;102860.31;5014252;28;20028;-75
2022/11/25 09:15:49;;;;;;;9.70;6.20;;;;;;;-4.14;95.29;102862.06;5014222;28;20033;-73
2022/11/25 09:18:19;;;;;;;11.50;6.53;;;;;;;-4.04;95.40;102858.50;5017952;28;20032;-75
2022/11/25 09:20:46;;;;;;;12.35;7.43;;;;;;;-3.93;94.41;102864.41;5019328;28;20032;-76
2022/11/25 09:23:12;;;;;;;11.52;7.13;;;;;;;-3.77;94.26;102865.06;5016037;28;20030;-75
2022/11/25 09:25:40;;;;;;;14.40;7.60;;;;;;;-3.78;93.67;102863.34;5013042;28;20048;-78
2022/11/25 09:28:06;;;;;;;11.13;6.35;;;;;;;-3.82;93.44;102859.94;4996004;28;20372;-76
2022/11/25 09:30:31;;;;;;;11.77;6.97;;;;;;;-3.88;93.59;102857.41;5013899;28;20068;-75
2022/11/25 09:32:57;;;;;;;11.93;6.80;;;;;;;-3.85;93.69;102866.91;5013550;28;20033;-74
2022/11/25 09:35:24;;;;;;;15.67;7.17;;;;;;;-3.72;94.69;102878.91;5016125;28;20030;-74
2022/11/25 09:37:50;;;;;;;10.35;6.90;;;;;;;-3.67;93.77;102871.03;5013759;28;20036;-75
2022/11/25 09:40:28;;;;;;;13.43;8.07;;;;;;;-3.84;93.80;102853.03;5014614;28;20472;-74
2022/11/25 09:49:23;;;;;;;11.48;7.65;;;;;;;-3.64;93.66;102879.66;5017370;28;20061;-75
2022/11/25 09:52:22;;;;;;;11.13;7.20;;;;;;;-3.69;93.94;102873.66;5004712;28;20033;-74
2022/11/25 09:54:57;;;;;;;13.82;7.28;;;;;;;-3.75;94.09;102863.34;5010717;28;20057;-74
2022/11/25 09:57:28;;;;;;;18.13;8.70;;;;;;;-3.82;94.35;102859.06;5013335;28;20030;-75
2022/11/25 10:00:15;;;;;;;10.02;6.53;;;;;;;-3.70;94.07;102873.69;5012153;28;20022;-76
2022/11/25 10:03:02;;;;;;;10.88;6.65;;;;;;;-3.59;94.85;102874.41;5013147;28;20127;-75
2022/11/25 10:05:33;;;;;;;10.13;6.63;;;;;;;-3.58;93.56;102876.97;5012969;28;20030;-77
2022/11/25 10:08:28;;;;;;;11.13;6.95;;;;;;;-3.61;93.76;102877.03;5013144;28;20049;-75
2022/11/25 10:11:00;;;;;;;11.52;6.90;;;;;;;-3.58;93.68;102876.97;5012536;28;20041;-74
2022/11/25 10:13:44;;;;;;;13.20;6.47;;;;;;;-3.52;93.72;102868.22;5012909;28;20041;-74
2022/11/25 10:16:27;;;;;;;11.65;6.22;;;;;;;-3.47;93.40;102875.09;5012781;28;20022;-76
2022/11/25 10:19:00;;;;;;;11.85;7.13;;;;;;;-3.50;93.43;102874.25;5012674;28;20045;-75
2022/11/25 10:21:26;;;;;;;13.13;6.32;;;;;;;-3.52;93.75;102863.00;5012372;28;20025;-76
2022/11/25 10:23:52;;;;;;;10.57;6.40;;;;;;;-3.49;93.48;102879.44;5012748;28;20091;-76
2022/11/25 10:26:21;;;;;;;9.97;6.13;;;;;;;-3.47;93.71;102869.00;5012483;28;20025;-76
2022/11/25 10:29:18;;;;;;;10.07;6.55;;;;;;;-3.70;93.33;102845.03;5012403;28;20072;-74
2022/11/25 10:31:44;;;;;;;8.23;6.13;;;;;;;-3.61;93.24;102856.19;5012070;28;20469;-74
2022/11/25 10:34:39;;;;;;;15.07;6.17;;;;;;;-3.54;93.56;102883.88;5012782;28;20084;-76
2022/11/25 10:37:12;;;;;;;12.10;6.13;;;;;;;-3.51;93.69;102873.41;5013811;28;20041;-76
2022/11/25 10:39:38;;;;;;;12.63;6.20;;;;;;;-3.49;93.86;102871.63;5012501;28;20432;-75
2022/11/25 10:42:11;;;;;;;15.80;6.10;;;;;;;-3.52;93.58;102870.81;5012339;28;20026;-78
2022/11/25 10:44:40;;;;;;;11.07;6.35;;;;;;;-3.52;93.56;102876.88;5012472;28;20052;-76
2022/11/25 10:47:25;;;;;;;11.25;6.55;;;;;;;-3.50;94.02;102888.16;5012262;28;20133;-75
2022/11/25 10:50:10;;;;;;;11.85;5.93;;;;;;;-3.48;93.97;102878.56;5012521;28;20044;-75
2022/11/25 10:52:58;;;;;;;7.90;5.45;;;;;;;-3.38;93.15;102883.66;5012168;28;20026;-75
2022/11/25 10:55:27;;;;;;;12.43;6.18;;;;;;;-3.41;93.70;102889.78;5012233;28;20108;-75
2022/11/25 10:57:53;;;;;;;9.65;5.53;;;;;;;-3.47;93.59;102879.44;5012256;28;20065;-75
2022/11/25 11:00:34;;;;;;;7.22;5.43;;;;;;;-3.49;93.66;102878.59;5012149;28;20037;-73
2022/11/25 11:03:20;;;;;;;8.98;5.80;;;;;;;-3.59;93.37;102872.66;5012009;28;20040;-76
2022/11/25 11:05:51;;;;;;;10.15;5.93;;;;;;;-3.52;93.89;102879.50;5011964;28;20120;-74
2022/11/25 11:08:39;;;;;;;7.93;6.15;;;;;;;-3.47;93.75;102885.53;5011895;28;20038;-75
2022/11/25 11:11:07;;;;;;;6.93;5.07;;;;;;;-3.44;93.46;102893.31;5010958;28;20113;-74
2022/11/25 11:13:33;;;;;;;7.90;5.80;;;;;;;-3.48;93.38;102891.59;5011532;28;20029;-74
2022/11/25 11:16:02;;;;;;;9.40;5.53;;;;;;;-3.52;93.89;102887.31;5024028;28;20034;-77
2022/11/25 11:18:43;;;;;;;7.57;5.78;;;;;;;-3.49;93.98;102879.44;5014630;28;20022;-75
2022/11/25 11:21:27;;;;;;;7.40;5.85;;;;;;;-3.51;93.65;102877.75;5013262;28;20026;-74
2022/11/25 11:24:03;;;;;;;8.60;5.72;;;;;;;-3.57;94.74;102876.09;5012192;28;20064;-73
2022/11/25 11:26:32;;;;;;;7.10;4.78;;;;;;;-3.55;93.70;102876.94;5010903;28;20041;-75
2022/11/25 11:29:11;;;;;;;6.68;5.93;;;;;;;-3.68;94.04;102880.59;5012281;28;20029;-74
2022/11/25 11:31:42;;;;;;;7.53;5.85;;;;;;;-3.76;94.23;102874.59;5012839;28;20093;-74
2022/11/25 11:34:46;;;;;;;7.30;5.90;;;;;;;-3.78;95.06;102882.44;5014505;28;20025;-76
2022/11/25 11:37:22;;;;;;;7.55;5.63;;;;;;;-3.69;94.34;102884.09;4951505;28;20039;-76
2022/11/25 11:40:39;;;;;;;7.30;5.88;;;;;;;-3.72;94.35;102880.66;4951231;29;20495;-76